This is the latest recevied weather packets stored in our database for station/object NE1CU. If no packets are shown the sender has not sent any weather packets the latest 10 day(s).
| Time | Temp. | Humidity | Pressure | Rain* | Wind** | Luminosity | Snow |
|---|---|---|---|---|---|---|---|
| 1777668677 | 17.78° C | 34% | 1009.8 hPa | 0 mm | - | 441 W/m² | - |
| 1777668373 | 18.33° C | 34% | 1009.9 hPa | 0 mm | - | 459 W/m² | - |
| 1777668069 | 17.78° C | 32% | 1009.9 hPa | 0 mm | - | 478 W/m² | - |
| 1777667766 | 17.78° C | 33% | 1009.8 hPa | 0 mm | - | 497 W/m² | - |
| 1777667464 | 18.33° C | 35% | 1010.1 hPa | 0 mm | - | 515 W/m² | - |
| 1777667160 | 18.33° C | 34% | 1009.8 hPa | 0 mm | - | 533 W/m² | - |
| 1777666857 | 18.89° C | 34% | 1009.7 hPa | 0 mm | - | 553 W/m² | - |
| 1777666554 | 18.33° C | 35% | 1009.6 hPa | 0 mm | - | 569 W/m² | - |
| 1777666251 | 17.78° C | 34% | 1009.9 hPa | 0 mm | - | 586 W/m² | - |
| 1777665948 | 17.78° C | 35% | 1010 hPa | 0 mm | - | 606 W/m² | - |
| 1777665645 | 17.78° C | 34% | 1010 hPa | 0 mm | - | 620 W/m² | - |
| 1777665343 | 17.78° C | 38% | 1009.9 hPa | 0 mm | - | 651 W/m² | - |
| 1777665037 | 17.22° C | 34% | 1010 hPa | 0 mm | - | 656 W/m² | - |
| 1777664733 | 17.78° C | 34% | 1010 hPa | 0 mm | - | 671 W/m² | - |
| 1777664430 | 17.22° C | 36% | 1010.2 hPa | 0 mm | - | 689 W/m² | - |
| 1777664127 | 17.78° C | 34% | 1010.4 hPa | 0 mm | - | 705 W/m² | - |
| 1777663826 | 17.78° C | 36% | 1010.3 hPa | 0 mm | - | 720 W/m² | - |
| 1777663522 | 17.78° C | 37% | 1010.3 hPa | 0 mm | - | 734 W/m² | - |
| 1777663220 | 17.22° C | 39% | 1010.4 hPa | 0 mm | - | 750 W/m² | - |
| 1777662917 | 16.67° C | 34% | 1010.6 hPa | 0 mm | - | 763 W/m² | - |
| 1777662614 | 17.22° C | 37% | 1010.4 hPa | 0 mm | - | 777 W/m² | - |
| 1777662309 | 17.22° C | 35% | 1010.5 hPa | 0 mm | - | 788 W/m² | - |
| 1777662005 | 16.67° C | 36% | 1010.6 hPa | 0 mm | - | 802 W/m² | - |
| 1777661701 | 16.67° C | 35% | 1010.5 hPa | 0 mm | - | 817 W/m² | - |
| 1777661398 | 17.22° C | 32% | 1010.6 hPa | 0 mm | - | 828 W/m² | - |
* Rain latest hour (hover to see other rain measurements)
** Current wind speed in m/s (hover to see current wind gust speed)